Time,TemperatureF,DewpointF,PressureIn,WindDirection,WindDirectionDegrees,WindSpeedMPH,WindSpeedGustMPH,Humidity,HourlyPrecipIn,Conditions,Clouds,dailyrainin,SoftwareType,DateUTC
2013-02-11 00:04:00,44.7,26.0,29.33,WNW,292,0.0,-999.0,46,0.00,,,0.00,Rainwise IP-100,2013-02-11 08:04:00,
2013-02-11 00:09:00,44.9,26.0,29.34,NW,315,0.0,-999.0,46,0.00,,,0.00,Rainwise IP-100,2013-02-11 08:09:00,
2013-02-11 00:14:00,45.1,26.0,29.34,NNE,22,0.0,-999.0,45,0.00,,,0.00,Rainwise IP-100,2013-02-11 08:14:00,
2013-02-11 00:19:00,45.5,26.0,29.34,NNE,22,1.9,-999.0,45,0.00,,,0.00,Rainwise IP-100,2013-02-11 08:19:00,
2013-02-11 00:24:00,45.3,26.0,29.34,NNE,22,2.1,-999.0,45,0.00,,,0.00,Rainwise IP-100,2013-02-11 08:24:00,
2013-02-11 00:29:00,44.4,24.0,29.35,NNE,22,1.4,-999.0,46,0.00,,,0.00,Rainwise IP-100,2013-02-11 08:29:00,
2013-02-11 00:34:00,44.1,24.0,29.34,NNE,22,0.0,-999.0,46,0.00,,,0.00,Rainwise IP-100,2013-02-11 08:34:00,
2013-02-11 00:39:00,44.3,24.0,29.34,NNE,22,1.6,-999.0,45,0.00,,,0.00,Rainwise IP-100,2013-02-11 08:39:00,
2013-02-11 00:44:00,44.5,26.0,29.34,NNE,22,1.4,-999.0,45,0.00,,,0.00,Rainwise IP-100,2013-02-11 08:44:00,
2013-02-11 00:49:00,44.5,26.0,29.34,WSW,247,1.2,-999.0,46,0.00,,,0.00,Rainwise IP-100,2013-02-11 08:49:00,
2013-02-11 00:54:00,44.8,26.0,29.34,ENE,67,0.0,-999.0,46,0.00,,,0.00,Rainwise IP-100,2013-02-11 08:54:00,
2013-02-11 00:59:00,44.8,26.0,29.34,WNW,292,0.0,-999.0,46,0.00,,,0.00,Rainwise IP-100,2013-02-11 08:59:00,
2013-02-11 01:04:00,44.5,26.0,29.34,NNE,22,4.0,-999.0,47,0.00,,,0.00,Rainwise IP-100,2013-02-11 09:04:00,
2013-02-11 01:09:00,44.3,26.0,29.34,NNE,22,0.0,-999.0,47,0.00,,,0.00,Rainwise IP-100,2013-02-11 09:09:00,
2013-02-11 01:14:00,44.2,26.0,29.34,NNE,22,1.2,-999.0,47,0.00,,,0.00,Rainwise IP-100,2013-02-11 09:14:00,
2013-02-11 01:19:00,44.4,24.0,29.34,WSW,247,1.6,-999.0,46,0.00,,,0.00,Rainwise IP-100,2013-02-11 09:19:00,
2013-02-11 01:24:00,44.7,26.0,29.34,NNW,337,2.1,-999.0,46,0.00,,,0.00,Rainwise IP-100,2013-02-11 09:24:00,
2013-02-11 01:29:00,44.8,26.0,29.34,NNW,337,1.6,-999.0,45,0.00,,,0.00,Rainwise IP-100,2013-02-11 09:29:00,
2013-02-11 01:34:00,44.7,26.0,29.34,NNW,337,0.0,-999.0,45,0.00,,,0.00,Rainwise IP-100,2013-02-11 09:34:00,
2013-02-11 01:39:00,44.4,24.0,29.34,NNE,22,0.0,-999.0,46,0.00,,,0.00,Rainwise IP-100,2013-02-11 09:39:00,
2013-02-11 01:44:00,44.1,26.0,29.34,NNE,22,1.2,-999.0,47,0.00,,,0.00,Rainwise IP-100,2013-02-11 09:44:00,
2013-02-11 01:49:00,44.2,26.0,29.35,NNE,22,0.0,-999.0,47,0.00,,,0.00,Rainwise IP-100,2013-02-11 09:49:00,
2013-02-11 01:54:00,44.6,26.0,29.35,NNE,22,1.4,-999.0,46,0.00,,,0.00,Rainwise IP-100,2013-02-11 09:54:00,
2013-02-11 01:59:00,44.9,26.0,29.34,North,360,1.2,-999.0,46,0.00,,,0.00,Rainwise IP-100,2013-02-11 09:59:00,
2013-02-11 02:04:00,45.7,26.0,29.35,NE,45,2.3,-999.0,44,0.00,,,0.00,Rainwise IP-100,2013-02-11 10:04:00,
2013-02-11 02:09:00,46.9,26.0,29.34,NNE,22,1.9,-999.0,43,0.00,,,0.00,Rainwise IP-100,2013-02-11 10:09:00,
2013-02-11 02:14:00,47.8,26.0,29.34,NNW,337,0.0,-999.0,40,0.00,,,0.00,Rainwise IP-100,2013-02-11 10:14:00,
2013-02-11 02:19:00,48.3,24.0,29.35,NNE,22,2.3,-999.0,39,0.00,,,0.00,Rainwise IP-100,2013-02-11 10:19:00,
2013-02-11 02:24:00,48.7,24.0,29.35,NNE,22,0.0,-999.0,38,0.00,,,0.00,Rainwise IP-100,2013-02-11 10:24:00,
2013-02-11 02:29:00,48.9,24.0,29.35,NNE,22,1.9,-999.0,38,0.00,,,0.00,Rainwise IP-100,2013-02-11 10:29:00,
2013-02-11 02:34:00,49.1,24.0,29.35,NNW,337,1.6,-999.0,37,0.00,,,0.00,Rainwise IP-100,2013-02-11 10:34:00,
2013-02-11 02:39:00,49.0,24.0,29.35,NNW,337,2.3,-999.0,37,0.00,,,0.00,Rainwise IP-100,2013-02-11 10:39:00,
2013-02-11 02:44:00,49.1,24.0,29.35,NNW,337,1.6,-999.0,37,0.00,,,0.00,Rainwise IP-100,2013-02-11 10:44:00,
2013-02-11 02:49:00,49.9,24.0,29.35,NNE,22,5.8,-999.0,36,0.00,,,0.00,Rainwise IP-100,2013-02-11 10:49:00,
2013-02-11 02:54:00,50.4,24.0,29.35,North,360,1.6,-999.0,35,0.00,,,0.00,Rainwise IP-100,2013-02-11 10:54:00,
2013-02-11 02:59:00,50.1,24.0,29.35,NNE,22,3.3,-999.0,35,0.00,,,0.00,Rainwise IP-100,2013-02-11 10:59:00,
2013-02-11 03:04:00,49.3,24.0,29.35,WSW,247,0.0,-999.0,36,0.00,,,0.00,Rainwise IP-100,2013-02-11 11:04:00,
2013-02-11 03:09:00,48.9,24.0,29.35,NNW,337,0.0,-999.0,36,0.00,,,0.00,Rainwise IP-100,2013-02-11 11:09:00,
2013-02-11 03:14:00,48.5,24.0,29.35,NNW,337,0.0,-999.0,37,0.00,,,0.00,Rainwise IP-100,2013-02-11 11:14:00,
2013-02-11 03:19:00,47.9,24.0,29.35,NNW,337,0.0,-999.0,38,0.00,,,0.00,Rainwise IP-100,2013-02-11 11:19:00,
2013-02-11 03:24:00,47.4,24.0,29.35,WNW,292,0.0,-999.0,39,0.00,,,0.00,Rainwise IP-100,2013-02-11 11:24:00,
2013-02-11 03:29:00,47.1,24.0,29.35,WNW,292,0.0,-999.0,40,0.00,,,0.00,Rainwise IP-100,2013-02-11 11:29:00,
2013-02-11 03:34:00,46.7,24.0,29.35,North,360,0.0,-999.0,40,0.00,,,0.00,Rainwise IP-100,2013-02-11 11:34:00,
2013-02-11 03:39:00,46.3,23.0,29.35,North,360,1.2,-999.0,40,0.00,,,0.00,Rainwise IP-100,2013-02-11 11:39:00,
2013-02-11 03:44:00,46.3,23.0,29.35,North,360,1.2,-999.0,40,0.00,,,0.00,Rainwise IP-100,2013-02-11 11:44:00,
2013-02-11 03:49:00,46.1,24.0,29.35,North,360,0.0,-999.0,41,0.00,,,0.00,Rainwise IP-100,2013-02-11 11:49:00,
2013-02-11 03:54:00,45.4,24.0,29.35,WNW,292,1.9,-999.0,42,0.00,,,0.00,Rainwise IP-100,2013-02-11 11:54:00,
2013-02-11 03:59:00,44.7,24.0,29.35,WNW,292,0.0,-999.0,44,0.00,,,0.00,Rainwise IP-100,2013-02-11 11:59:00,
2013-02-11 04:04:00,44.3,24.0,29.35,WNW,292,0.0,-999.0,44,0.00,,,0.00,Rainwise IP-100,2013-02-11 12:04:00,
2013-02-11 04:09:00,44.5,24.0,29.35,NNW,337,1.2,-999.0,44,0.00,,,0.00,Rainwise IP-100,2013-02-11 12:09:00,
2013-02-11 04:14:00,44.5,24.0,29.35,WNW,292,0.0,-999.0,44,0.00,,,0.00,Rainwise IP-100,2013-02-11 12:14:00,
2013-02-11 04:19:00,43.8,24.0,29.35,WNW,292,1.4,-999.0,46,0.00,,,0.00,Rainwise IP-100,2013-02-11 12:19:00,
2013-02-11 04:24:00,43.2,24.0,29.35,WNW,292,0.0,-999.0,48,0.00,,,0.00,Rainwise IP-100,2013-02-11 12:24:00,
2013-02-11 04:29:00,42.9,24.0,29.35,WNW,292,1.9,-999.0,48,0.00,,,0.00,Rainwise IP-100,2013-02-11 12:29:00,
2013-02-11 04:34:00,42.8,24.0,29.35,WNW,292,0.0,-999.0,48,0.00,,,0.00,Rainwise IP-100,2013-02-11 12:34:00,
2013-02-11 04:39:00,42.7,24.0,29.36,WNW,292,0.0,-999.0,48,0.00,,,0.00,Rainwise IP-100,2013-02-11 12:39:00,
2013-02-11 04:44:00,42.9,24.0,29.36,WNW,292,0.0,-999.0,48,0.00,,,0.00,Rainwise IP-100,2013-02-11 12:44:00,
2013-02-11 04:49:00,43.0,24.0,29.36,WNW,292,0.0,-999.0,48,0.00,,,0.00,Rainwise IP-100,2013-02-11 12:49:00,
2013-02-11 04:54:00,43.0,24.0,29.36,NNE,22,0.0,-999.0,48,0.00,,,0.00,Rainwise IP-100,2013-02-11 12:54:00,
2013-02-11 04:59:00,43.1,24.0,29.36,NE,45,2.3,-999.0,47,0.00,,,0.00,Rainwise IP-100,2013-02-11 12:59:00,
2013-02-11 05:04:00,43.0,24.0,29.36,NE,45,0.0,-999.0,47,0.00,,,0.00,Rainwise IP-100,2013-02-11 13:04:00,
2013-02-11 05:09:00,43.6,26.0,29.37,NNE,22,0.0,-999.0,47,0.00,,,0.00,Rainwise IP-100,2013-02-11 13:09:00,
2013-02-11 05:14:00,44.2,24.0,29.37,NNE,22,0.0,-999.0,45,0.00,,,0.00,Rainwise IP-100,2013-02-11 13:14:00,
2013-02-11 05:19:00,43.9,24.0,29.37,WNW,292,0.0,-999.0,45,0.00,,,0.00,Rainwise IP-100,2013-02-11 13:19:00,
2013-02-11 05:24:00,43.4,24.0,29.37,WNW,292,0.0,-999.0,47,0.00,,,0.00,Rainwise IP-100,2013-02-11 13:24:00,
2013-02-11 05:29:00,42.8,26.0,29.37,WNW,292,0.0,-999.0,49,0.00,,,0.00,Rainwise IP-100,2013-02-11 13:29:00,
2013-02-11 05:34:00,42.2,26.0,29.38,WNW,292,2.8,-999.0,50,0.00,,,0.00,Rainwise IP-100,2013-02-11 13:34:00,
2013-02-11 05:39:00,41.5,26.0,29.38,WNW,292,1.4,-999.0,52,0.00,,,0.00,Rainwise IP-100,2013-02-11 13:39:00,
2013-02-11 05:42:00,41.0,26.0,29.37,WNW,292,0.0,-999.0,53,0.00,,,0.00,Rainwise IP-100,2013-02-11 13:42:00,
2013-02-11 05:47:00,40.4,26.0,29.38,NNW,337,0.0,-999.0,54,0.00,,,0.00,Rainwise IP-100,2013-02-11 13:47:00,
2013-02-11 05:52:00,40.3,26.0,29.38,NNW,337,2.8,-999.0,54,0.00,,,0.00,Rainwise IP-100,2013-02-11 13:52:00,
2013-02-11 05:57:00,40.6,26.0,29.38,NNW,337,3.0,-999.0,54,0.00,,,0.00,Rainwise IP-100,2013-02-11 13:57:00,
2013-02-11 06:02:00,41.0,26.0,29.38,NNW,337,1.6,-999.0,53,0.00,,,0.00,Rainwise IP-100,2013-02-11 14:02:00,
2013-02-11 06:07:00,41.3,26.0,29.38,NNW,337,1.6,-999.0,53,0.00,,,0.00,Rainwise IP-100,2013-02-11 14:07:00,
2013-02-11 06:12:00,41.5,26.0,29.38,NNW,337,0.0,-999.0,52,0.00,,,0.00,Rainwise IP-100,2013-02-11 14:12:00,
2013-02-11 06:17:00,41.2,26.0,29.39,WNW,292,1.2,-999.0,53,0.00,,,0.00,Rainwise IP-100,2013-02-11 14:17:00,
2013-02-11 06:22:00,40.3,26.0,29.39,WNW,292,0.0,-999.0,55,0.00,,,0.00,Rainwise IP-100,2013-02-11 14:22:00,
2013-02-11 06:27:00,39.4,26.0,29.39,WNW,292,0.0,-999.0,58,0.00,,,0.00,Rainwise IP-100,2013-02-11 14:27:00,
2013-02-11 06:32:00,38.6,26.0,29.38,WNW,292,1.2,-999.0,60,0.00,,,0.00,Rainwise IP-100,2013-02-11 14:32:00,
2013-02-11 06:37:00,38.0,26.0,29.39,WNW,292,1.9,-999.0,62,0.00,,,0.00,Rainwise IP-100,2013-02-11 14:37:00,
2013-02-11 06:42:00,37.5,26.0,29.39,WNW,292,1.4,-999.0,63,0.00,,,0.00,Rainwise IP-100,2013-02-11 14:42:00,
2013-02-11 06:47:00,37.2,26.0,29.39,SSE,157,1.6,-999.0,64,0.00,,,0.00,Rainwise IP-100,2013-02-11 14:47:00,
2013-02-11 06:52:00,37.3,26.0,29.39,SSE,157,0.0,-999.0,64,0.00,,,0.00,Rainwise IP-100,2013-02-11 14:52:00,
2013-02-11 06:57:00,37.1,26.0,29.39,SSE,157,0.0,-999.0,65,0.00,,,0.00,Rainwise IP-100,2013-02-11 14:57:00,
2013-02-11 07:02:00,36.7,28.0,29.39,SW,225,2.3,-999.0,66,0.00,,,0.00,Rainwise IP-100,2013-02-11 15:02:00,
2013-02-11 07:07:00,36.2,26.0,29.39,SW,225,1.9,-999.0,66,0.00,,,0.00,Rainwise IP-100,2013-02-11 15:07:00,
2013-02-11 07:12:00,36.1,26.0,29.39,SW,225,1.4,-999.0,67,0.00,,,0.00,Rainwise IP-100,2013-02-11 15:12:00,
2013-02-11 07:17:00,36.6,28.0,29.40,WSW,247,1.4,-999.0,67,0.00,,,0.00,Rainwise IP-100,2013-02-11 15:17:00,
2013-02-11 07:22:00,37.0,28.0,29.40,WSW,247,1.9,-999.0,66,0.00,,,0.00,Rainwise IP-100,2013-02-11 15:22:00,
2013-02-11 07:27:00,37.2,28.0,29.40,North,360,1.2,-999.0,66,0.00,,,0.00,Rainwise IP-100,2013-02-11 15:27:00,
2013-02-11 07:32:00,37.7,28.0,29.41,North,360,0.0,-999.0,67,0.00,,,0.00,Rainwise IP-100,2013-02-11 15:32:00,
2013-02-11 07:37:00,38.1,28.0,29.41,South,180,0.0,-999.0,66,0.00,,,0.00,Rainwise IP-100,2013-02-11 15:37:00,
2013-02-11 07:42:00,38.5,29.0,29.41,West,270,0.0,-999.0,66,0.00,,,0.00,Rainwise IP-100,2013-02-11 15:42:00,
2013-02-11 07:47:00,39.3,29.0,29.41,West,270,0.0,-999.0,66,0.00,,,0.00,Rainwise IP-100,2013-02-11 15:47:00,
2013-02-11 07:52:00,40.4,29.0,29.41,West,270,0.0,-999.0,64,0.00,,,0.00,Rainwise IP-100,2013-02-11 15:52:00,
2013-02-11 07:57:00,40.9,29.0,29.41,WSW,247,2.6,-999.0,63,0.00,,,0.00,Rainwise IP-100,2013-02-11 15:57:00,
2013-02-11 08:02:00,40.9,29.0,29.42,WSW,247,2.1,-999.0,63,0.00,,,0.00,Rainwise IP-100,2013-02-11 16:02:00,
2013-02-11 08:07:00,41.2,29.0,29.42,SSE,157,0.0,-999.0,63,0.00,,,0.00,Rainwise IP-100,2013-02-11 16:07:00,
2013-02-11 08:12:00,42.5,31.0,29.42,North,360,2.3,-999.0,61,0.00,,,0.00,Rainwise IP-100,2013-02-11 16:12:00,
2013-02-11 08:17:00,45.8,31.0,29.42,NE,45,1.4,-999.0,56,0.00,,,0.00,Rainwise IP-100,2013-02-11 16:17:00,
2013-02-11 08:22:00,49.1,31.0,29.43,NNE,22,2.1,-999.0,49,0.00,,,0.00,Rainwise IP-100,2013-02-11 16:22:00,
2013-02-11 08:27:00,51.0,31.0,29.43,NNE,22,3.0,-999.0,44,0.00,,,0.00,Rainwise IP-100,2013-02-11 16:27:00,
2013-02-11 08:32:00,52.7,29.0,29.43,North,360,1.9,-999.0,40,0.00,,,0.00,Rainwise IP-100,2013-02-11 16:32:00,
2013-02-11 08:37:00,53.4,29.0,29.43,NNE,22,2.1,-999.0,38,0.00,,,0.00,Rainwise IP-100,2013-02-11 16:37:00,
2013-02-11 08:42:00,53.7,28.0,29.43,NNW,337,3.0,-999.0,37,0.00,,,0.00,Rainwise IP-100,2013-02-11 16:42:00,
2013-02-11 08:47:00,54.5,28.0,29.43,ENE,67,4.7,-999.0,36,0.00,,,0.00,Rainwise IP-100,2013-02-11 16:47:00,
2013-02-11 08:52:00,55.3,28.0,29.44,North,360,4.7,-999.0,34,0.00,,,0.00,Rainwise IP-100,2013-02-11 16:52:00,
2013-02-11 08:57:00,55.7,28.0,29.43,NNE,22,1.9,-999.0,33,0.00,,,0.00,Rainwise IP-100,2013-02-11 16:57:00,
2013-02-11 09:02:00,56.1,28.0,29.43,North,360,3.0,-999.0,33,0.00,,,0.00,Rainwise IP-100,2013-02-11 17:02:00,
2013-02-11 09:07:00,56.7,28.0,29.43,NNE,22,4.4,-999.0,33,0.00,,,0.00,Rainwise IP-100,2013-02-11 17:07:00,
2013-02-11 09:12:00,57.2,28.0,29.43,NNW,337,3.3,-999.0,32,0.00,,,0.00,Rainwise IP-100,2013-02-11 17:12:00,
2013-02-11 09:17:00,57.5,28.0,29.43,NNW,337,1.4,-999.0,31,0.00,,,0.00,Rainwise IP-100,2013-02-11 17:17:00,
2013-02-11 09:22:00,57.9,29.0,29.43,WNW,292,1.9,-999.0,32,0.00,,,0.00,Rainwise IP-100,2013-02-11 17:22:00,
2013-02-11 09:27:00,58.2,29.0,29.44,NNW,337,3.3,-999.0,32,0.00,,,0.00,Rainwise IP-100,2013-02-11 17:27:00,
2013-02-11 09:32:00,58.3,28.0,29.44,North,360,2.1,-999.0,31,0.00,,,0.00,Rainwise IP-100,2013-02-11 17:32:00,
2013-02-11 09:37:00,58.4,28.0,29.44,North,360,4.0,-999.0,31,0.00,,,0.00,Rainwise IP-100,2013-02-11 17:37:00,
2013-02-11 09:42:00,58.5,29.0,29.44,West,270,0.0,-999.0,31,0.00,,,0.00,Rainwise IP-100,2013-02-11 17:42:00,
2013-02-11 09:47:00,58.7,29.0,29.44,NNW,337,0.0,-999.0,31,0.00,,,0.00,Rainwise IP-100,2013-02-11 17:47:00,
2013-02-11 09:52:00,58.9,29.0,29.44,NNW,337,4.4,-999.0,31,0.00,,,0.00,Rainwise IP-100,2013-02-11 17:52:00,
2013-02-11 09:57:00,58.8,29.0,29.45,NNE,22,4.9,-999.0,31,0.00,,,0.00,Rainwise IP-100,2013-02-11 17:57:00,
2013-02-11 10:02:00,58.6,28.0,29.45,NNW,337,3.7,-999.0,30,0.00,,,0.00,Rainwise IP-100,2013-02-11 18:02:00,
2013-02-11 10:07:00,58.7,28.0,29.45,NNW,337,4.2,-999.0,30,0.00,,,0.00,Rainwise IP-100,2013-02-11 18:07:00,
2013-02-11 10:12:00,59.0,28.0,29.45,SSW,202,3.3,-999.0,30,0.00,,,0.00,Rainwise IP-100,2013-02-11 18:12:00,
2013-02-11 10:17:00,59.1,29.0,29.45,NNE,22,7.5,-999.0,31,0.00,,,0.00,Rainwise IP-100,2013-02-11 18:17:00,
2013-02-11 10:22:00,58.5,28.0,29.44,NNW,337,5.1,-999.0,30,0.00,,,0.00,Rainwise IP-100,2013-02-11 18:22:00,
2013-02-11 10:27:00,58.2,28.0,29.45,NE,45,4.0,-999.0,31,0.00,,,0.00,Rainwise IP-100,2013-02-11 18:27:00,
2013-02-11 10:32:00,58.3,28.0,29.44,ENE,67,7.9,-999.0,31,0.00,,,0.00,Rainwise IP-100,2013-02-11 18:32:00,
2013-02-11 10:37:00,58.0,28.0,29.44,ENE,67,2.8,-999.0,30,0.00,,,0.00,Rainwise IP-100,2013-02-11 18:37:00,
2013-02-11 10:42:00,58.2,28.0,29.44,ENE,67,6.3,-999.0,31,0.00,,,0.00,Rainwise IP-100,2013-02-11 18:42:00,
2013-02-11 10:47:00,58.6,29.0,29.44,NNE,22,3.5,-999.0,31,0.00,,,0.00,Rainwise IP-100,2013-02-11 18:47:00,
2013-02-11 10:52:00,58.9,29.0,29.44,ENE,67,3.0,-999.0,31,0.00,,,0.00,Rainwise IP-100,2013-02-11 18:52:00,
2013-02-11 10:57:00,59.1,28.0,29.44,NNE,22,2.6,-999.0,30,0.00,,,0.00,Rainwise IP-100,2013-02-11 18:57:00,
2013-02-11 11:02:00,59.4,28.0,29.44,NE,45,2.8,-999.0,30,0.00,,,0.00,Rainwise IP-100,2013-02-11 19:02:00,
2013-02-11 11:07:00,60.1,29.0,29.44,North,360,4.2,-999.0,30,0.00,,,0.00,Rainwise IP-100,2013-02-11 19:07:00,
2013-02-11 11:12:00,60.9,29.0,29.44,NE,45,4.0,-999.0,29,0.00,,,0.00,Rainwise IP-100,2013-02-11 19:12:00,
2013-02-11 11:17:00,61.4,29.0,29.43,NNE,22,4.4,-999.0,29,0.00,,,0.00,Rainwise IP-100,2013-02-11 19:17:00,
2013-02-11 11:22:00,61.3,29.0,29.43,NNE,22,1.4,-999.0,29,0.00,,,0.00,Rainwise IP-100,2013-02-11 19:22:00,
2013-02-11 11:27:00,61.8,29.0,29.43,NE,45,7.0,-999.0,28,0.00,,,0.00,Rainwise IP-100,2013-02-11 19:27:00,
2013-02-11 11:32:00,62.6,29.0,29.43,ENE,67,3.0,-999.0,28,0.00,,,0.00,Rainwise IP-100,2013-02-11 19:32:00,
2013-02-11 11:37:00,62.5,28.0,29.43,NNE,22,4.0,-999.0,27,0.00,,,0.00,Rainwise IP-100,2013-02-11 19:37:00,
2013-02-11 11:42:00,62.3,28.0,29.43,NE,45,2.8,-999.0,27,0.00,,,0.00,Rainwise IP-100,2013-02-11 19:42:00,
2013-02-11 11:47:00,62.5,28.0,29.42,NNW,337,3.0,-999.0,27,0.00,,,0.00,Rainwise IP-100,2013-02-11 19:47:00,
2013-02-11 11:52:00,63.3,29.0,29.42,NE,45,4.2,-999.0,27,0.00,,,0.00,Rainwise IP-100,2013-02-11 19:52:00,
2013-02-11 11:57:00,63.5,29.0,29.42,North,360,0.0,-999.0,27,0.00,,,0.00,Rainwise IP-100,2013-02-11 19:57:00,
2013-02-11 12:02:00,63.5,29.0,29.41,NNE,22,6.1,-999.0,27,0.00,,,0.00,Rainwise IP-100,2013-02-11 20:02:00,
2013-02-11 12:07:00,63.2,29.0,29.41,NNE,22,2.3,-999.0,27,0.00,,,0.00,Rainwise IP-100,2013-02-11 20:07:00,
2013-02-11 12:12:00,63.0,28.0,29.41,NNE,22,6.8,-999.0,26,0.00,,,0.00,Rainwise IP-100,2013-02-11 20:12:00,
2013-02-11 12:17:00,63.0,28.0,29.41,ENE,67,4.9,-999.0,26,0.00,,,0.00,Rainwise IP-100,2013-02-11 20:17:00,
2013-02-11 12:22:00,62.9,28.0,29.41,NE,45,6.3,-999.0,26,0.00,,,0.00,Rainwise IP-100,2013-02-11 20:22:00,
2013-02-11 12:27:00,63.0,29.0,29.41,NNE,22,3.0,-999.0,27,0.00,,,0.00,Rainwise IP-100,2013-02-11 20:27:00,
2013-02-11 12:32:00,63.2,29.0,29.41,North,360,4.9,-999.0,27,0.00,,,0.00,Rainwise IP-100,2013-02-11 20:32:00,
2013-02-11 12:37:00,63.6,29.0,29.41,NE,45,4.2,-999.0,27,0.00,,,0.00,Rainwise IP-100,2013-02-11 20:37:00,
2013-02-11 12:42:00,63.6,28.0,29.40,NNE,22,5.4,-999.0,26,0.00,,,0.00,Rainwise IP-100,2013-02-11 20:42:00,
2013-02-11 12:47:00,63.5,28.0,29.40,North,360,7.7,-999.0,25,0.00,,,0.00,Rainwise IP-100,2013-02-11 20:47:00,
2013-02-11 12:52:00,63.7,28.0,29.40,NNE,22,2.8,-999.0,26,0.00,,,0.00,Rainwise IP-100,2013-02-11 20:52:00,
2013-02-11 12:57:00,63.8,29.0,29.40,ESE,112,2.8,-999.0,26,0.00,,,0.00,Rainwise IP-100,2013-02-11 20:57:00,
2013-02-11 13:02:00,63.5,28.0,29.40,NNE,22,2.3,-999.0,26,0.00,,,0.00,Rainwise IP-100,2013-02-11 21:02:00,
2013-02-11 13:07:00,63.8,29.0,29.40,ENE,67,3.7,-999.0,26,0.00,,,0.00,Rainwise IP-100,2013-02-11 21:07:00,
2013-02-11 13:12:00,64.2,29.0,29.39,NNE,22,7.5,-999.0,26,0.00,,,0.00,Rainwise IP-100,2013-02-11 21:12:00,
2013-02-11 13:17:00,64.1,29.0,29.39,NNE,22,4.0,-999.0,26,0.00,,,0.00,Rainwise IP-100,2013-02-11 21:17:00,
2013-02-11 13:22:00,63.9,28.0,29.39,NNE,22,9.8,-999.0,25,0.00,,,0.00,Rainwise IP-100,2013-02-11 21:22:00,
2013-02-11 13:27:00,63.7,28.0,29.39,NNE,22,2.1,-999.0,25,0.00,,,0.00,Rainwise IP-100,2013-02-11 21:27:00,
2013-02-11 13:32:00,63.7,28.0,29.39,NE,45,0.0,-999.0,25,0.00,,,0.00,Rainwise IP-100,2013-02-11 21:32:00,
2013-02-11 13:37:00,64.5,28.0,29.39,NNW,337,7.2,-999.0,24,0.00,,,0.00,Rainwise IP-100,2013-02-11 21:37:00,
2013-02-11 13:42:00,65.0,28.0,29.39,East,90,3.7,-999.0,24,0.00,,,0.00,Rainwise IP-100,2013-02-11 21:42:00,
2013-02-11 13:47:00,64.9,26.0,29.39,East,90,3.0,-999.0,23,0.00,,,0.00,Rainwise IP-100,2013-02-11 21:47:00,
2013-02-11 13:52:00,65.1,26.0,29.38,NNW,337,2.1,-999.0,23,0.00,,,0.00,Rainwise IP-100,2013-02-11 21:52:00,
2013-02-11 13:57:00,65.6,26.0,29.39,NE,45,4.7,-999.0,23,0.00,,,0.00,Rainwise IP-100,2013-02-11 21:57:00,
2013-02-11 14:02:00,65.6,26.0,29.38,NNW,337,5.1,-999.0,22,0.00,,,0.00,Rainwise IP-100,2013-02-11 22:02:00,
2013-02-11 14:07:00,65.8,26.0,29.38,NNW,337,2.6,-999.0,22,0.00,,,0.00,Rainwise IP-100,2013-02-11 22:07:00,
2013-02-11 14:12:00,66.4,26.0,29.38,ESE,112,0.0,-999.0,22,0.00,,,0.00,Rainwise IP-100,2013-02-11 22:12:00,
2013-02-11 14:17:00,66.3,26.0,29.38,NNE,22,4.2,-999.0,22,0.00,,,0.00,Rainwise IP-100,2013-02-11 22:17:00,
2013-02-11 14:22:00,65.7,26.0,29.38,ENE,67,0.0,-999.0,22,0.00,,,0.00,Rainwise IP-100,2013-02-11 22:22:00,
2013-02-11 14:27:00,65.4,26.0,29.38,SSE,157,0.0,-999.0,23,0.00,,,0.00,Rainwise IP-100,2013-02-11 22:27:00,
2013-02-11 14:32:00,65.5,26.0,29.38,NNE,22,4.4,-999.0,23,0.00,,,0.00,Rainwise IP-100,2013-02-11 22:32:00,
2013-02-11 14:37:00,65.4,26.0,29.38,East,90,4.9,-999.0,23,0.00,,,0.00,Rainwise IP-100,2013-02-11 22:37:00,
2013-02-11 14:42:00,65.0,26.0,29.38,ENE,67,5.4,-999.0,22,0.00,,,0.00,Rainwise IP-100,2013-02-11 22:42:00,
2013-02-11 14:47:00,64.8,26.0,29.37,NNE,22,4.4,-999.0,23,0.00,,,0.00,Rainwise IP-100,2013-02-11 22:47:00,
2013-02-11 14:52:00,65.1,26.0,29.38,East,90,9.6,-999.0,23,0.00,,,0.00,Rainwise IP-100,2013-02-11 22:52:00,
2013-02-11 14:57:00,64.8,26.0,29.37,NNE,22,3.3,-999.0,23,0.00,,,0.00,Rainwise IP-100,2013-02-11 22:57:00,
2013-02-11 15:02:00,64.8,26.0,29.37,NNE,22,4.7,-999.0,23,0.00,,,0.00,Rainwise IP-100,2013-02-11 23:02:00,
2013-02-11 15:07:00,64.9,26.0,29.37,ENE,67,3.5,-999.0,23,0.00,,,0.00,Rainwise IP-100,2013-02-11 23:07:00,
2013-02-11 15:12:00,64.9,26.0,29.37,ESE,112,4.0,-999.0,23,0.00,,,0.00,Rainwise IP-100,2013-02-11 23:12:00,
2013-02-11 15:17:00,65.0,26.0,29.37,NNE,22,2.1,-999.0,23,0.00,,,0.00,Rainwise IP-100,2013-02-11 23:17:00,
2013-02-11 15:22:00,65.8,28.0,29.37,NNE,22,0.0,-999.0,23,0.00,,,0.00,Rainwise IP-100,2013-02-11 23:22:00,
2013-02-11 15:27:00,66.1,26.0,29.37,NNE,22,3.5,-999.0,22,0.00,,,0.00,Rainwise IP-100,2013-02-11 23:27:00,
2013-02-11 15:32:00,65.9,28.0,29.37,NNE,22,1.6,-999.0,23,0.00,,,0.00,Rainwise IP-100,2013-02-11 23:32:00,
2013-02-11 15:37:00,66.0,28.0,29.37,East,90,4.4,-999.0,23,0.00,,,0.00,Rainwise IP-100,2013-02-11 23:37:00,
2013-02-11 15:42:00,65.8,26.0,29.37,ESE,112,4.0,-999.0,22,0.00,,,0.00,Rainwise IP-100,2013-02-11 23:42:00,
2013-02-11 15:47:00,65.5,26.0,29.37,ESE,112,3.3,-999.0,23,0.00,,,0.00,Rainwise IP-100,2013-02-11 23:47:00,
2013-02-11 15:52:00,65.3,26.0,29.38,ENE,67,1.2,-999.0,23,0.00,,,0.00,Rainwise IP-100,2013-02-11 23:52:00,
2013-02-11 15:57:00,65.5,26.0,29.38,ESE,112,0.0,-999.0,23,0.00,,,0.00,Rainwise IP-100,2013-02-11 23:57:00,
2013-02-11 16:02:00,65.6,26.0,29.38,SE,135,2.8,-999.0,23,0.00,,,0.00,Rainwise IP-100,2013-02-12 00:02:00,
2013-02-11 16:07:00,65.7,28.0,29.38,SSE,157,2.6,-999.0,24,0.00,,,0.00,Rainwise IP-100,2013-02-12 00:07:00,
2013-02-11 16:12:00,66.0,28.0,29.38,South,180,2.8,-999.0,23,0.00,,,0.00,Rainwise IP-100,2013-02-12 00:12:00,
2013-02-11 16:17:00,66.6,28.0,29.38,SSE,157,2.8,-999.0,23,0.00,,,0.00,Rainwise IP-100,2013-02-12 00:17:00,
2013-02-11 16:22:00,66.7,28.0,29.38,SSE,157,4.7,-999.0,22,0.00,,,0.00,Rainwise IP-100,2013-02-12 00:22:00,
2013-02-11 16:27:00,66.3,26.0,29.38,SSW,202,3.0,-999.0,22,0.00,,,0.00,Rainwise IP-100,2013-02-12 00:27:00,
2013-02-11 16:32:00,66.5,28.0,29.38,SW,225,2.3,-999.0,23,0.00,,,0.00,Rainwise IP-100,2013-02-12 00:32:00,
2013-02-11 16:37:00,66.6,31.0,29.38,WSW,247,1.2,-999.0,25,0.00,,,0.00,Rainwise IP-100,2013-02-12 00:37:00,
2013-02-11 16:42:00,66.2,31.0,29.38,WSW,247,1.9,-999.0,26,0.00,,,0.00,Rainwise IP-100,2013-02-12 00:42:00,
2013-02-11 16:47:00,65.8,31.0,29.38,WSW,247,2.1,-999.0,27,0.00,,,0.00,Rainwise IP-100,2013-02-12 00:47:00,
2013-02-11 16:53:00,65.1,31.0,29.38,WSW,247,1.9,-999.0,28,0.00,,,0.00,Rainwise IP-100,2013-02-12 00:53:00,
2013-02-11 16:58:00,63.5,31.0,29.39,WSW,247,1.4,-999.0,29,0.00,,,0.00,Rainwise IP-100,2013-02-12 00:58:00,
2013-02-11 17:03:00,62.0,31.0,29.39,WSW,247,1.4,-999.0,31,0.00,,,0.00,Rainwise IP-100,2013-02-12 01:03:00,
2013-02-11 17:08:00,60.3,31.0,29.39,SSW,202,2.1,-999.0,33,0.00,,,0.00,Rainwise IP-100,2013-02-12 01:08:00,
2013-02-11 17:13:00,58.7,32.0,29.39,WSW,247,2.3,-999.0,35,0.00,,,0.00,Rainwise IP-100,2013-02-12 01:13:00,
2013-02-11 17:18:00,57.5,32.0,29.39,WSW,247,0.0,-999.0,37,0.00,,,0.00,Rainwise IP-100,2013-02-12 01:18:00,
2013-02-11 17:23:00,56.2,32.0,29.39,WSW,247,0.0,-999.0,39,0.00,,,0.00,Rainwise IP-100,2013-02-12 01:23:00,
2013-02-11 17:28:00,55.2,32.0,29.39,WSW,247,0.0,-999.0,40,0.00,,,0.00,Rainwise IP-100,2013-02-12 01:28:00,
2013-02-11 17:33:00,54.3,32.0,29.39,WSW,247,1.4,-999.0,41,0.00,,,0.00,Rainwise IP-100,2013-02-12 01:33:00,
2013-02-11 17:38:00,53.1,32.0,29.40,WSW,247,0.0,-999.0,45,0.00,,,0.00,Rainwise IP-100,2013-02-12 01:38:00,
2013-02-11 17:43:00,51.8,33.0,29.40,WSW,247,0.0,-999.0,48,0.00,,,0.00,Rainwise IP-100,2013-02-12 01:43:00,
2013-02-11 17:48:00,50.9,33.0,29.40,WSW,247,1.2,-999.0,50,0.00,,,0.00,Rainwise IP-100,2013-02-12 01:48:00,
2013-02-11 17:53:00,49.8,33.0,29.40,WSW,247,1.6,-999.0,53,0.00,,,0.00,Rainwise IP-100,2013-02-12 01:53:00,
2013-02-11 17:58:00,48.7,33.0,29.40,WSW,247,1.6,-999.0,55,0.00,,,0.00,Rainwise IP-100,2013-02-12 01:58:00,
2013-02-11 18:03:00,47.8,33.0,29.40,WSW,247,0.0,-999.0,57,0.00,,,0.00,Rainwise IP-100,2013-02-12 02:03:00,
2013-02-11 18:08:00,47.1,33.0,29.40,WSW,247,0.0,-999.0,58,0.00,,,0.00,Rainwise IP-100,2013-02-12 02:08:00,
2013-02-11 18:13:00,46.6,33.0,29.40,WSW,247,0.0,-999.0,58,0.00,,,0.00,Rainwise IP-100,2013-02-12 02:13:00,
2013-02-11 18:18:00,46.2,32.0,29.41,WSW,247,1.9,-999.0,59,0.00,,,0.00,Rainwise IP-100,2013-02-12 02:18:00,
2013-02-11 18:23:00,46.0,33.0,29.41,WSW,247,0.0,-999.0,61,0.00,,,0.00,Rainwise IP-100,2013-02-12 02:23:00,
2013-02-11 18:28:00,45.9,33.0,29.41,WSW,247,1.6,-999.0,61,0.00,,,0.00,Rainwise IP-100,2013-02-12 02:28:00,
2013-02-11 18:33:00,45.9,33.0,29.41,WSW,247,0.0,-999.0,61,0.00,,,0.00,Rainwise IP-100,2013-02-12 02:33:00,
2013-02-11 18:38:00,45.5,33.0,29.41,WSW,247,1.2,-999.0,62,0.00,,,0.00,Rainwise IP-100,2013-02-12 02:38:00,
2013-02-11 18:43:00,45.0,33.0,29.41,WSW,247,1.4,-999.0,63,0.00,,,0.00,Rainwise IP-100,2013-02-12 02:43:00,
2013-02-11 18:48:00,44.8,33.0,29.41,WSW,247,0.0,-999.0,64,0.00,,,0.00,Rainwise IP-100,2013-02-12 02:48:00,
2013-02-11 18:53:00,44.8,33.0,29.42,WSW,247,1.9,-999.0,64,0.00,,,0.00,Rainwise IP-100,2013-02-12 02:53:00,
2013-02-11 18:58:00,44.5,35.0,29.41,WSW,247,1.9,-999.0,65,0.00,,,0.00,Rainwise IP-100,2013-02-12 02:58:00,
2013-02-11 19:03:00,44.1,33.0,29.41,WSW,247,1.2,-999.0,66,0.00,,,0.00,Rainwise IP-100,2013-02-12 03:03:00,
2013-02-11 19:08:00,43.8,33.0,29.41,WSW,247,1.2,-999.0,67,0.00,,,0.00,Rainwise IP-100,2013-02-12 03:08:00,
2013-02-11 19:13:00,43.4,33.0,29.41,WSW,247,0.0,-999.0,68,0.00,,,0.00,Rainwise IP-100,2013-02-12 03:13:00,
2013-02-11 19:18:00,43.1,33.0,29.42,WSW,247,1.2,-999.0,68,0.00,,,0.00,Rainwise IP-100,2013-02-12 03:18:00,
2013-02-11 19:23:00,42.8,33.0,29.42,WSW,247,1.4,-999.0,69,0.00,,,0.00,Rainwise IP-100,2013-02-12 03:23:00,
2013-02-11 19:28:00,42.7,33.0,29.42,WSW,247,0.0,-999.0,69,0.00,,,0.00,Rainwise IP-100,2013-02-12 03:28:00,
2013-02-11 19:33:00,42.6,33.0,29.42,WSW,247,0.0,-999.0,69,0.00,,,0.00,Rainwise IP-100,2013-02-12 03:33:00,
2013-02-11 19:38:00,42.3,33.0,29.42,WSW,247,2.3,-999.0,69,0.00,,,0.00,Rainwise IP-100,2013-02-12 03:38:00,
2013-02-11 19:43:00,41.8,33.0,29.42,WSW,247,1.6,-999.0,70,0.00,,,0.00,Rainwise IP-100,2013-02-12 03:43:00,
2013-02-11 19:48:00,41.5,33.0,29.42,WSW,247,1.9,-999.0,71,0.00,,,0.00,Rainwise IP-100,2013-02-12 03:48:00,
2013-02-11 19:53:00,41.3,33.0,29.43,WSW,247,0.0,-999.0,72,0.00,,,0.00,Rainwise IP-100,2013-02-12 03:53:00,
2013-02-11 19:58:00,41.0,33.0,29.43,WSW,247,2.1,-999.0,72,0.00,,,0.00,Rainwise IP-100,2013-02-12 03:58:00,
2013-02-11 20:03:00,40.8,33.0,29.43,WSW,247,0.0,-999.0,72,0.00,,,0.00,Rainwise IP-100,2013-02-12 04:03:00,
2013-02-11 20:08:00,40.9,33.0,29.43,WSW,247,0.0,-999.0,72,0.00,,,0.00,Rainwise IP-100,2013-02-12 04:08:00,
2013-02-11 20:13:00,41.0,33.0,29.42,WSW,247,0.0,-999.0,72,0.00,,,0.00,Rainwise IP-100,2013-02-12 04:13:00,
2013-02-11 20:18:00,40.8,33.0,29.43,WSW,247,1.2,-999.0,72,0.00,,,0.00,Rainwise IP-100,2013-02-12 04:18:00,
2013-02-11 20:23:00,40.3,32.0,29.43,WSW,247,2.1,-999.0,73,0.00,,,0.00,Rainwise IP-100,2013-02-12 04:23:00,
2013-02-11 20:28:00,39.9,33.0,29.43,WSW,247,2.3,-999.0,74,0.00,,,0.00,Rainwise IP-100,2013-02-12 04:28:00,
2013-02-11 20:33:00,39.6,33.0,29.43,WSW,247,2.6,-999.0,75,0.00,,,0.00,Rainwise IP-100,2013-02-12 04:33:00,
2013-02-11 20:38:00,39.5,33.0,29.43,WSW,247,1.2,-999.0,75,0.00,,,0.00,Rainwise IP-100,2013-02-12 04:38:00,
2013-02-11 20:43:00,39.4,32.0,29.43,WSW,247,1.9,-999.0,75,0.00,,,0.00,Rainwise IP-100,2013-02-12 04:43:00,
2013-02-11 20:48:00,39.5,33.0,29.43,WSW,247,0.0,-999.0,76,0.00,,,0.00,Rainwise IP-100,2013-02-12 04:48:00,
2013-02-11 20:53:00,39.8,33.0,29.44,WSW,247,0.0,-999.0,77,0.00,,,0.00,Rainwise IP-100,2013-02-12 04:53:00,
2013-02-11 20:58:00,39.7,33.0,29.43,WSW,247,0.0,-999.0,76,0.00,,,0.00,Rainwise IP-100,2013-02-12 04:58:00,
2013-02-11 21:00:00,39.5,33.0,29.43,WSW,247,0.0,-999.0,76,0.00,,,0.00,Rainwise IP-100,2013-02-12 05:00:00,
2013-02-11 21:05:00,39.0,32.0,29.43,WSW,247,0.0,-999.0,77,0.00,,,0.00,Rainwise IP-100,2013-02-12 05:05:00,
2013-02-11 21:10:00,38.7,32.0,29.43,WSW,247,1.9,-999.0,77,0.00,,,0.00,Rainwise IP-100,2013-02-12 05:10:00,
2013-02-11 21:15:00,38.3,32.0,29.43,WSW,247,1.2,-999.0,77,0.00,,,0.00,Rainwise IP-100,2013-02-12 05:15:00,
2013-02-11 21:16:00,38.2,32.0,29.44,WSW,247,2.6,-999.0,77,0.00,,,0.00,Rainwise IP-100,2013-02-12 05:16:00,
2013-02-11 21:21:00,37.9,32.0,29.44,WSW,247,0.0,-999.0,78,0.00,,,0.00,Rainwise IP-100,2013-02-12 05:21:00,
2013-02-11 21:26:00,37.8,32.0,29.43,WSW,247,0.0,-999.0,79,0.00,,,0.00,Rainwise IP-100,2013-02-12 05:26:00,
2013-02-11 21:31:00,37.8,32.0,29.44,WSW,247,0.0,-999.0,79,0.00,,,0.00,Rainwise IP-100,2013-02-12 05:31:00,
2013-02-11 21:36:00,37.6,32.0,29.44,WSW,247,2.8,-999.0,79,0.00,,,0.00,Rainwise IP-100,2013-02-12 05:36:00,
2013-02-11 21:41:00,37.3,31.0,29.44,WSW,247,0.0,-999.0,79,0.00,,,0.00,Rainwise IP-100,2013-02-12 05:41:00,
2013-02-11 21:46:00,37.3,32.0,29.44,WSW,247,0.0,-999.0,80,0.00,,,0.00,Rainwise IP-100,2013-02-12 05:46:00,
2013-02-11 21:51:00,37.3,32.0,29.44,WSW,247,0.0,-999.0,81,0.00,,,0.00,Rainwise IP-100,2013-02-12 05:51:00,
2013-02-11 21:56:00,37.3,32.0,29.44,WSW,247,0.0,-999.0,81,0.00,,,0.00,Rainwise IP-100,2013-02-12 05:56:00,
2013-02-11 22:01:00,37.2,32.0,29.44,WSW,247,0.0,-999.0,81,0.00,,,0.00,Rainwise IP-100,2013-02-12 06:01:00,
2013-02-11 22:06:00,36.8,32.0,29.44,WSW,247,1.6,-999.0,82,0.00,,,0.00,Rainwise IP-100,2013-02-12 06:06:00,
2013-02-11 22:11:00,36.5,32.0,29.44,WSW,247,0.0,-999.0,82,0.00,,,0.00,Rainwise IP-100,2013-02-12 06:11:00,
2013-02-11 22:16:00,36.5,32.0,29.44,WSW,247,0.0,-999.0,82,0.00,,,0.00,Rainwise IP-100,2013-02-12 06:16:00,
2013-02-11 22:21:00,36.4,31.0,29.44,WSW,247,0.0,-999.0,83,0.00,,,0.00,Rainwise IP-100,2013-02-12 06:21:00,
2013-02-11 22:26:00,36.5,32.0,29.44,WSW,247,0.0,-999.0,83,0.00,,,0.00,Rainwise IP-100,2013-02-12 06:26:00,
2013-02-11 22:31:00,36.8,32.0,29.44,WSW,247,0.0,-999.0,83,0.00,,,0.00,Rainwise IP-100,2013-02-12 06:31:00,
2013-02-11 22:36:00,36.8,32.0,29.44,WSW,247,1.2,-999.0,82,0.00,,,0.00,Rainwise IP-100,2013-02-12 06:36:00,
2013-02-11 22:41:00,36.6,32.0,29.44,WSW,247,0.0,-999.0,83,0.00,,,0.00,Rainwise IP-100,2013-02-12 06:41:00,
2013-02-11 22:46:00,36.4,31.0,29.44,WSW,247,1.4,-999.0,83,0.00,,,0.00,Rainwise IP-100,2013-02-12 06:46:00,
2013-02-11 22:51:00,36.0,31.0,29.44,WSW,247,2.3,-999.0,83,0.00,,,0.00,Rainwise IP-100,2013-02-12 06:51:00,
2013-02-11 22:52:00,36.0,31.0,29.45,WSW,247,1.4,-999.0,83,0.00,,,0.00,Rainwise IP-100,2013-02-12 06:52:00,
2013-02-11 22:58:00,36.0,32.0,29.45,WSW,247,0.0,-999.0,84,0.00,,,0.00,Rainwise IP-100,2013-02-12 06:58:00,
2013-02-11 23:00:00,36.0,32.0,29.45,WSW,247,0.0,-999.0,84,0.00,,,0.00,Rainwise IP-100,2013-02-12 07:00:00,
2013-02-11 23:05:00,35.8,32.0,29.46,ESE,112,0.0,-999.0,84,0.00,,,0.00,Rainwise IP-100,2013-02-12 07:05:00,
2013-02-11 23:10:00,35.3,31.0,29.46,ESE,112,0.0,-999.0,84,0.00,,,0.00,Rainwise IP-100,2013-02-12 07:10:00,
2013-02-11 23:15:00,34.9,31.0,29.46,ESE,112,0.0,-999.0,85,0.00,,,0.00,Rainwise IP-100,2013-02-12 07:15:00,
2013-02-11 23:20:00,34.5,31.0,29.46,SSW,202,0.0,-999.0,85,0.00,,,0.00,Rainwise IP-100,2013-02-12 07:20:00,
2013-02-11 23:25:00,34.1,31.0,29.46,SSW,202,0.0,-999.0,86,0.00,,,0.00,Rainwise IP-100,2013-02-12 07:25:00,
2013-02-11 23:30:00,34.2,31.0,29.46,SSW,202,0.0,-999.0,87,0.00,,,0.00,Rainwise IP-100,2013-02-12 07:30:00,
2013-02-11 23:35:00,34.4,31.0,29.46,SSW,202,1.2,-999.0,87,0.00,,,0.00,Rainwise IP-100,2013-02-12 07:35:00,
2013-02-11 23:40:00,34.1,31.0,29.46,SSW,202,1.4,-999.0,87,0.00,,,0.00,Rainwise IP-100,2013-02-12 07:40:00,
2013-02-11 23:45:00,33.7,31.0,29.46,SSW,202,0.0,-999.0,87,0.00,,,0.00,Rainwise IP-100,2013-02-12 07:45:00,
2013-02-11 23:50:00,33.7,32.0,29.46,WSW,247,1.2,-999.0,88,0.00,,,0.00,Rainwise IP-100,2013-02-12 07:50:00,
2013-02-11 23:55:00,33.8,32.0,29.46,WSW,247,1.6,-999.0,89,0.00,,,0.00,Rainwise IP-100,2013-02-12 07:55:00,